METAR AND TAF INFORMATION

METAR FOR SVCS
ADDS - METARS form results

(0039 UTC 05 December 2022)
Data provider http://aviationweather.gov/metar/data/
 
METAR text: SVCS 050003Z AUTO 08007KT NCD 20/18 Q1012
Conditions at: SVCS (CARACAS/OSCAR MA, VE) observed 0003 UTC 05 December 2022
Temperature: 20.0°C (68°F)
Dewpoint: 18.0°C (64°F) [RH = 88%]
Pressure (altimeter): 29.88 inches Hg (1012.0 mb)
Winds: from the E (80 degrees) at 8 MPH (7 knots; 3.6 m/s)
Visibility: missing
Ceiling: at least 12,000 feet AGL
Clouds: sky clear below 12,000 feet AGL
Weather: no significant weather observed at this time

 

AIRPORT MAP

 

RUNWAY INFORMATION

Runway 10 Runway length 6562 ft Runway width 98 ft
Runway elevation 2145 ft Runway displaced threshold 0 ft Runway heading 94
Runway 28 Runway length 6562 ft Runway width 98 ft
Runway elevation 2119 ft Runway displaced threshold 0 ft Runway heading 274

 

AIRPORT FREQUENCIES

Type APP Name CHARALLAVE Frequency 119.2 MHZ
Type GND Name GND Frequency 121.7 MHZ
Type RDO Name CARACAS RD Frequency 132 MHZ
Type TWR Name CARACAS TW Frequency 118 MHZ
Type TWR Name CARACAS TW Frequency 122.1 MHZ

 

AIRPORT NEAR NAVIGATION AIDS

Type VOR-DME Name Charallave Frequency 115200 KHZ